createdAt,value
2019-04-03T00:01:19.654Z,7.50
2019-04-03T00:03:48.568Z,7.40
2019-04-03T00:06:19.212Z,7.40
2019-04-03T00:08:50.136Z,7.40
2019-04-03T00:11:19.051Z,7.50
2019-04-03T00:13:48.024Z,7.50
2019-04-03T00:16:17.029Z,7.60
2019-04-03T00:18:47.583Z,7.60
2019-04-03T00:21:17.690Z,7.70
2019-04-03T00:23:47.327Z,7.80
2019-04-03T00:26:16.207Z,7.80
2019-04-03T00:28:47.310Z,7.80
2019-04-03T00:31:16.171Z,7.80
2019-04-03T00:33:45.046Z,7.80
2019-04-03T00:36:18.886Z,7.80
2019-04-03T00:38:47.784Z,7.90
2019-04-03T00:41:16.926Z,7.90
2019-04-03T00:43:45.891Z,7.90
2019-04-03T00:46:15.616Z,7.90
2019-04-03T00:48:44.607Z,7.90
2019-04-03T00:51:13.667Z,7.90
2019-04-03T00:53:42.768Z,7.80
2019-04-03T00:56:11.941Z,7.80
2019-04-03T00:58:42.211Z,7.70
2019-04-03T01:01:11.430Z,7.70
2019-04-03T01:03:40.509Z,7.70
2019-04-03T01:06:09.356Z,7.60
2019-04-03T01:08:38.503Z,7.60
2019-04-03T01:11:07.446Z,7.50
2019-04-03T01:13:36.333Z,7.50
2019-04-03T01:16:05.572Z,7.40
2019-04-03T01:18:35.366Z,7.40
2019-04-03T01:21:07.714Z,7.40
2019-04-03T01:23:38.925Z,7.40
2019-04-03T01:26:10.087Z,7.40
2019-04-03T01:28:42.899Z,7.30
2019-04-03T01:31:14.224Z,7.20
2019-04-03T01:33:42.618Z,7.20
2019-04-03T01:36:11.686Z,7.10
2019-04-03T01:38:40.916Z,7.00
2019-04-03T01:41:09.902Z,7.00
2019-04-03T01:43:42.389Z,6.90
2019-04-03T01:46:12.569Z,6.90
2019-04-03T01:48:41.480Z,6.80
2019-04-03T01:51:10.715Z,6.80
2019-04-03T01:53:40.261Z,6.80
2019-04-03T01:56:12.267Z,6.80
2019-04-03T01:58:41.285Z,6.80
2019-04-03T02:01:10.457Z,6.80
2019-04-03T02:03:41.727Z,6.80
2019-04-03T02:06:13.513Z,6.80
2019-04-03T02:08:44.899Z,6.80
2019-04-03T02:11:14.406Z,6.80
2019-04-03T02:13:43.198Z,6.80
2019-04-03T02:16:12.128Z,6.80
2019-04-03T02:18:41.051Z,6.90
2019-04-03T02:21:10.197Z,6.80
2019-04-03T02:23:39.226Z,6.80
2019-04-03T02:26:08.165Z,6.80
2019-04-03T02:28:37.170Z,6.80
2019-04-03T02:31:06.240Z,6.80
2019-04-03T02:33:36.139Z,6.80
2019-04-03T02:36:05.006Z,6.70
2019-04-03T02:38:34.235Z,6.70
2019-04-03T02:41:07.742Z,6.70
2019-04-03T02:43:39.128Z,6.70
2019-04-03T02:46:08.166Z,6.70
2019-04-03T02:48:38.288Z,6.70
2019-04-03T02:51:07.669Z,6.60
2019-04-03T02:53:38.769Z,6.70
2019-04-03T02:56:07.493Z,6.70
2019-04-03T02:58:38.036Z,6.60
2019-04-03T03:01:07.355Z,6.70
2019-04-03T03:03:39.489Z,6.70
2019-04-03T03:06:08.356Z,6.60
2019-04-03T03:08:40.518Z,6.70
2019-04-03T03:11:08.730Z,6.70
2019-04-03T03:13:44.321Z,6.60
2019-04-03T03:16:14.539Z,6.60
2019-04-03T03:18:43.948Z,6.60
2019-04-03T03:21:14.791Z,6.60
2019-04-03T03:23:43.934Z,6.60
2019-04-03T03:26:17.589Z,6.60
2019-04-03T03:28:47.926Z,6.70
2019-04-03T03:31:44.420Z,6.70
2019-04-03T03:34:00.504Z,6.70
2019-04-03T03:36:26.455Z,6.70
2019-04-03T03:38:58.370Z,6.70
2019-04-03T03:41:33.904Z,6.70
2019-04-03T03:44:02.999Z,6.70
2019-04-03T03:46:34.025Z,6.70
2019-04-03T03:49:02.916Z,6.70
2019-04-03T03:51:37.863Z,6.60
2019-04-03T03:54:06.839Z,6.70
2019-04-03T03:56:40.738Z,6.70
2019-04-03T03:59:16.326Z,6.70
2019-04-03T04:01:43.395Z,6.70
2019-04-03T04:04:14.179Z,6.70
2019-04-03T04:06:45.065Z,6.70
2019-04-03T04:09:20.168Z,6.70
2019-04-03T04:11:52.806Z,6.70
2019-04-03T04:14:25.009Z,6.70
2019-04-03T04:16:53.941Z,6.80
2019-04-03T04:19:23.014Z,6.70
2019-04-03T04:21:52.066Z,6.70
2019-04-03T04:24:24.036Z,6.70
2019-04-03T04:26:52.968Z,6.70
2019-04-03T04:29:22.138Z,6.70
2019-04-03T04:31:51.355Z,6.60
2019-04-03T04:34:20.382Z,6.70
2019-04-03T04:36:54.774Z,6.70
2019-04-03T04:39:23.048Z,6.60
2019-04-03T04:41:53.835Z,6.70
2019-04-03T04:44:24.783Z,6.60
2019-04-03T04:46:56.087Z,6.60
2019-04-03T04:49:25.051Z,6.60
2019-04-03T04:51:56.602Z,6.60
2019-04-03T04:54:24.940Z,6.60
2019-04-03T04:56:53.994Z,6.60
2019-04-03T04:59:23.112Z,6.60
2019-04-03T05:01:52.046Z,6.60
2019-04-03T05:04:25.227Z,6.60
2019-04-03T05:06:56.083Z,6.60
2019-04-03T05:09:25.000Z,6.60
2019-04-03T05:11:56.185Z,6.60
2019-04-03T05:14:25.824Z,6.60
2019-04-03T05:16:56.355Z,6.60
2019-04-03T05:19:25.447Z,6.50
2019-04-03T05:21:55.800Z,6.50
2019-04-03T05:24:24.758Z,6.50
2019-04-03T05:26:53.814Z,6.50
2019-04-03T05:29:23.124Z,6.50
2019-04-03T05:31:52.404Z,6.50
2019-04-03T05:34:21.412Z,6.50
2019-04-03T05:36:52.733Z,6.50
2019-04-03T05:39:23.921Z,6.50
2019-04-03T05:41:53.623Z,6.50
2019-04-03T05:44:25.922Z,6.50
2019-04-03T05:46:55.011Z,6.50
2019-04-03T05:49:25.870Z,6.50
2019-04-03T05:51:54.928Z,6.50
2019-04-03T05:54:23.934Z,6.50
2019-04-03T05:57:14.088Z,6.50
2019-04-03T05:59:44.747Z,6.50
2019-04-03T06:02:16.937Z,6.50
2019-04-03T06:04:44.757Z,6.50
2019-04-03T06:07:17.527Z,6.50
2019-04-03T06:09:44.925Z,6.50
2019-04-03T06:12:19.398Z,6.50
2019-04-03T06:14:50.504Z,6.40
2019-04-03T06:17:22.781Z,6.40
2019-04-03T06:19:54.963Z,6.50
2019-04-03T06:22:24.039Z,6.50
2019-04-03T06:24:57.105Z,6.60
2019-04-03T06:27:27.724Z,6.50
2019-04-03T06:29:57.480Z,6.60
2019-04-03T06:32:29.938Z,6.60
2019-04-03T06:34:59.380Z,6.60
2019-04-03T06:37:31.241Z,6.70
2019-04-03T06:40:02.966Z,6.60
2019-04-03T06:42:36.119Z,6.70
2019-04-03T06:45:15.423Z,6.70
2019-04-03T06:47:46.790Z,6.80
2019-04-03T06:50:17.572Z,6.80
2019-04-03T06:52:46.975Z,6.90
2019-04-03T06:55:20.534Z,7.00
2019-04-03T06:57:52.633Z,7.00
2019-04-03T07:00:34.921Z,7.00
2019-04-03T07:03:04.590Z,7.10
2019-04-03T07:05:33.756Z,7.10
2019-04-03T07:08:04.299Z,7.10
2019-04-03T07:10:34.519Z,7.20
2019-04-03T07:13:04.547Z,7.30
2019-04-03T07:15:34.830Z,7.30
2019-04-03T07:18:08.355Z,7.40
2019-04-03T07:20:44.073Z,7.50
2019-04-03T07:23:14.933Z,7.50
2019-04-03T07:25:44.221Z,7.50
2019-04-03T07:28:13.439Z,7.60
2019-04-03T07:30:44.846Z,7.60
2019-04-03T07:33:17.178Z,7.60
2019-04-03T07:35:47.717Z,7.60
2019-04-03T07:38:16.984Z,7.70
2019-04-03T07:40:45.785Z,7.80
2019-04-03T07:43:14.771Z,7.90
2019-04-03T07:45:48.954Z,8.00
2019-04-03T07:48:17.575Z,8.10
2019-04-03T07:50:46.228Z,8.20
2019-04-03T07:53:14.876Z,8.30
2019-04-03T07:55:44.322Z,8.40
2019-04-03T07:58:13.105Z,8.40
2019-04-03T08:00:42.090Z,8.40
2019-04-03T08:03:11.140Z,8.40
2019-04-03T08:05:39.868Z,8.40
2019-04-03T08:08:08.553Z,8.50
2019-04-03T08:10:37.808Z,8.50
2019-04-03T08:13:07.520Z,8.50
2019-04-03T08:15:36.458Z,8.60
2019-04-03T08:18:05.171Z,8.60
2019-04-03T08:20:33.979Z,8.70
2019-04-03T08:23:04.623Z,8.70
2019-04-03T08:25:33.260Z,8.70
2019-04-03T08:28:02.059Z,8.80
2019-04-03T08:30:30.746Z,8.90
2019-04-03T08:32:59.480Z,8.80
2019-04-03T08:35:28.072Z,8.80
2019-04-03T08:37:56.973Z,8.80
2019-04-03T08:40:25.612Z,8.90
2019-04-03T08:42:54.541Z,9.00
2019-04-03T08:45:23.176Z,9.00
2019-04-03T08:47:52.312Z,9.10
2019-04-03T08:50:21.323Z,9.10
2019-04-03T08:52:50.047Z,9.20
2019-04-03T08:55:18.799Z,9.30
2019-04-03T08:57:47.495Z,9.40
2019-04-03T09:00:16.757Z,9.40
2019-04-03T09:02:46.898Z,9.50
2019-04-03T09:05:18.994Z,9.50
2019-04-03T09:07:46.311Z,9.60
2019-04-03T09:10:15.096Z,9.70
2019-04-03T09:12:43.867Z,9.80
2019-04-03T09:15:12.619Z,9.80
2019-04-03T09:17:44.281Z,10.00
2019-04-03T09:20:13.821Z,10.00
2019-04-03T09:22:42.901Z,10.10
2019-04-03T09:25:13.757Z,10.20
2019-04-03T09:27:42.724Z,10.30
2019-04-03T09:30:11.823Z,10.30
2019-04-03T09:32:40.586Z,10.30
2019-04-03T09:35:09.398Z,10.20
2019-04-03T09:37:38.409Z,10.10
2019-04-03T09:40:07.411Z,10.10
2019-04-03T09:42:36.068Z,10.10
2019-04-03T09:45:05.351Z,10.10
2019-04-03T09:47:34.960Z,10.10
2019-04-03T09:50:05.462Z,10.10
2019-04-03T09:52:41.774Z,10.10
2019-04-03T09:55:05.029Z,10.10
2019-04-03T09:57:34.231Z,10.00
2019-04-03T10:00:03.907Z,10.00
2019-04-03T10:02:32.771Z,9.90
2019-04-03T10:05:01.440Z,9.80
2019-04-03T10:07:31.850Z,9.60
2019-04-03T10:10:00.560Z,9.40
2019-04-03T10:12:31.778Z,9.30
2019-04-03T10:15:00.174Z,9.30
2019-04-03T10:17:29.017Z,9.30
2019-04-03T10:19:57.671Z,9.40
2019-04-03T10:22:26.401Z,9.50
2019-04-03T10:24:55.267Z,9.60
2019-04-03T10:27:23.951Z,9.70
2019-04-03T10:29:55.282Z,9.90
2019-04-03T10:32:23.121Z,10.10
2019-04-03T10:34:52.584Z,10.30
2019-04-03T10:37:21.576Z,10.50
2019-04-03T10:39:53.066Z,10.60
2019-04-03T10:42:20.892Z,10.70
2019-04-03T10:44:49.657Z,10.80
2019-04-03T10:47:20.840Z,10.90
2019-04-03T10:49:49.316Z,10.90
2019-04-03T10:52:18.306Z,11.00
2019-04-03T10:54:47.638Z,11.00
2019-04-03T10:57:16.396Z,11.00
2019-04-03T10:59:50.135Z,11.10
2019-04-03T11:02:17.008Z,11.10
2019-04-03T11:04:45.785Z,11.10
2019-04-03T11:07:14.640Z,11.10
2019-04-03T11:09:43.751Z,11.00
2019-04-03T11:12:12.626Z,11.00
2019-04-03T11:14:41.540Z,11.00
2019-04-03T11:17:10.393Z,11.00
2019-04-03T11:19:39.168Z,11.00
2019-04-03T11:22:07.870Z,11.00
2019-04-03T11:24:39.794Z,11.00
2019-04-03T11:27:07.181Z,10.90
2019-04-03T11:29:41.006Z,10.80
2019-04-03T11:32:10.018Z,10.80
2019-04-03T11:34:39.101Z,10.80
2019-04-03T11:37:08.370Z,10.70
2019-04-03T11:39:37.833Z,10.60
2019-04-03T11:42:06.784Z,10.40
2019-04-03T11:44:37.505Z,10.00
2019-04-03T11:47:06.193Z,9.70
2019-04-03T11:49:34.857Z,9.60
2019-04-03T11:52:03.945Z,9.70
2019-04-03T11:54:33.045Z,9.90
2019-04-03T11:57:02.139Z,10.10
2019-04-03T11:59:31.605Z,10.20
2019-04-03T12:02:00.836Z,10.30
2019-04-03T12:04:29.662Z,10.20
2019-04-03T12:06:58.634Z,10.20
2019-04-03T12:09:27.563Z,10.20
2019-04-03T12:11:56.692Z,10.30
2019-04-03T12:14:25.825Z,10.50
2019-04-03T12:16:56.976Z,10.60
2019-04-03T12:19:25.525Z,10.70
2019-04-03T12:21:56.761Z,10.60
2019-04-03T12:24:25.588Z,10.60
2019-04-03T12:26:55.769Z,10.70
2019-04-03T12:29:24.806Z,10.80
2019-04-03T12:31:53.747Z,10.90
2019-04-03T12:34:23.837Z,11.00
2019-04-03T12:36:52.716Z,11.10
2019-04-03T12:39:28.162Z,11.10
2019-04-03T12:41:59.909Z,11.20
2019-04-03T12:44:28.908Z,11.40
2019-04-03T12:46:57.965Z,11.50
2019-04-03T12:49:27.372Z,11.50
2019-04-03T12:51:57.952Z,11.70
2019-04-03T12:54:26.813Z,11.80
2019-04-03T12:57:00.234Z,12.00
2019-04-03T12:59:30.568Z,12.20
2019-04-03T13:01:59.576Z,12.20
2019-04-03T13:04:32.920Z,12.20
2019-04-03T13:07:04.455Z,12.10
2019-04-03T13:09:33.031Z,12.10
2019-04-03T13:12:01.980Z,12.20
2019-04-03T13:14:32.616Z,12.20
2019-04-03T13:17:01.564Z,12.30
2019-04-03T13:19:30.750Z,12.40
2019-04-03T13:21:59.649Z,12.50
2019-04-03T13:24:28.663Z,12.60
2019-04-03T13:26:58.064Z,12.70
2019-04-03T13:29:27.868Z,12.80
2019-04-03T13:31:57.140Z,13.00
2019-04-03T13:34:26.555Z,13.00
2019-04-03T13:36:56.966Z,13.00
2019-04-03T13:39:27.817Z,13.10
2019-04-03T13:41:57.206Z,13.00
2019-04-03T13:44:27.966Z,12.90
2019-04-03T13:46:57.661Z,12.90
2019-04-03T13:49:29.253Z,12.90
2019-04-03T13:52:03.947Z,12.80
2019-04-03T13:54:29.692Z,12.70
2019-04-03T13:56:58.880Z,12.50
2019-04-03T13:59:27.736Z,12.40
2019-04-03T14:01:56.599Z,12.30
2019-04-03T14:04:25.769Z,12.30
2019-04-03T14:06:55.443Z,12.10
2019-04-03T14:09:24.143Z,11.90
2019-04-03T14:11:54.153Z,11.90
2019-04-03T14:14:22.884Z,11.90
2019-04-03T14:16:51.751Z,11.70
2019-04-03T14:19:23.589Z,11.50
2019-04-03T14:21:51.224Z,11.60
2019-04-03T14:24:20.278Z,11.70
2019-04-03T14:26:49.165Z,11.70
2019-04-03T14:29:18.670Z,11.80
2019-04-03T14:31:49.350Z,11.80
2019-04-03T14:34:18.742Z,11.70
2019-04-03T14:36:47.945Z,11.50
2019-04-03T14:39:18.373Z,11.50
2019-04-03T14:41:47.462Z,11.50
2019-04-03T14:44:16.352Z,11.60
2019-04-03T14:46:45.198Z,11.80
2019-04-03T14:49:14.190Z,11.90
2019-04-03T14:51:44.101Z,12.00
2019-04-03T14:54:13.376Z,12.00
2019-04-03T14:56:42.403Z,12.00
2019-04-03T14:59:16.375Z,12.00
2019-04-03T15:01:47.571Z,12.10
2019-04-03T15:04:22.999Z,12.10
2019-04-03T15:07:04.583Z,12.00
2019-04-03T15:09:27.890Z,12.00
2019-04-03T15:12:01.555Z,11.90
2019-04-03T15:14:32.448Z,12.00
2019-04-03T15:17:04.042Z,12.20
2019-04-03T15:19:35.449Z,12.30
2019-04-03T15:22:06.516Z,12.30
2019-04-03T15:24:38.847Z,12.50
2019-04-03T15:27:12.240Z,12.60
2019-04-03T15:29:42.905Z,12.80
2019-04-03T15:32:11.998Z,13.00
2019-04-03T15:34:40.889Z,13.10
2019-04-03T15:37:09.935Z,13.40
2019-04-03T15:39:38.966Z,13.60
2019-04-03T15:42:08.504Z,13.80
2019-04-03T15:44:37.482Z,14.10
2019-04-03T15:47:08.920Z,14.40
2019-04-03T15:49:40.894Z,14.70
2019-04-03T15:52:11.022Z,14.80
2019-04-03T15:54:40.923Z,14.80
2019-04-03T15:57:18.514Z,15.00
2019-04-03T15:59:52.500Z,15.00
2019-04-03T16:02:21.489Z,14.70
2019-04-03T16:04:50.432Z,14.30
2019-04-03T16:07:27.441Z,13.90
2019-04-03T16:09:58.440Z,13.50
2019-04-03T16:12:27.349Z,13.10
2019-04-03T16:14:56.308Z,12.80
2019-04-03T16:17:25.165Z,12.60
2019-04-03T16:19:54.175Z,12.40
2019-04-03T16:22:24.057Z,12.10
2019-04-03T16:24:53.853Z,11.90
2019-04-03T16:27:23.268Z,11.70
2019-04-03T16:29:52.152Z,11.70
2019-04-03T16:32:21.033Z,11.70
2019-04-03T16:34:50.158Z,11.70
2019-04-03T16:37:21.431Z,12.00
2019-04-03T16:39:49.391Z,12.40
2019-04-03T16:42:18.195Z,12.70
2019-04-03T16:44:47.158Z,12.70
2019-04-03T16:47:16.092Z,12.80
2019-04-03T16:49:44.832Z,12.80
2019-04-03T16:52:13.812Z,12.90
2019-04-03T16:54:44.415Z,13.00
2019-04-03T16:57:13.766Z,13.00
2019-04-03T16:59:42.652Z,12.80
2019-04-03T17:02:11.484Z,12.80
2019-04-03T17:04:40.347Z,12.60
2019-04-03T17:07:09.136Z,12.50
2019-04-03T17:09:39.378Z,12.60
2019-04-03T17:12:09.606Z,12.40
2019-04-03T17:14:39.913Z,12.20
2019-04-03T17:17:13.314Z,12.00
2019-04-03T17:19:39.557Z,11.70
2019-04-03T17:22:08.541Z,11.50
2019-04-03T17:24:44.222Z,11.40
2019-04-03T17:27:08.324Z,11.20
2019-04-03T17:29:37.561Z,11.20
2019-04-03T17:32:08.257Z,11.10
2019-04-03T17:34:43.892Z,11.00
2019-04-03T17:37:19.029Z,10.90
2019-04-03T17:39:45.238Z,10.80
2019-04-03T17:42:19.286Z,10.70
2019-04-03T17:44:51.110Z,10.60
2019-04-03T17:47:23.607Z,10.50
2019-04-03T17:49:59.285Z,10.40
2019-04-03T17:52:30.744Z,10.40
2019-04-03T17:54:59.880Z,10.30
2019-04-03T17:57:37.612Z,10.20
2019-04-03T18:00:09.447Z,10.20
2019-04-03T18:02:39.083Z,10.10
2019-04-03T18:05:09.140Z,10.10
2019-04-03T18:07:43.554Z,10.10
2019-04-03T18:10:13.169Z,10.10
2019-04-03T18:12:46.953Z,10.10
2019-04-03T18:15:16.562Z,10.10
2019-04-03T18:17:49.704Z,10.10
2019-04-03T18:20:21.292Z,10.10
2019-04-03T18:22:52.827Z,10.10
2019-04-03T18:25:24.687Z,10.10
2019-04-03T18:27:56.741Z,10.00
2019-04-03T18:30:27.142Z,10.00
2019-04-03T18:33:05.806Z,10.00
2019-04-03T18:35:43.579Z,9.90
2019-04-03T18:38:12.799Z,9.90
2019-04-03T18:40:45.880Z,9.90
2019-04-03T18:43:15.327Z,9.90
2019-04-03T18:45:45.725Z,9.90
2019-04-03T18:48:17.052Z,9.90
2019-04-03T18:50:49.112Z,9.80
2019-04-03T18:53:18.195Z,9.90
2019-04-03T18:55:49.631Z,9.90
2019-04-03T18:58:18.988Z,9.90
2019-04-03T19:00:49.490Z,9.80
2019-04-03T19:03:18.748Z,9.70
2019-04-03T19:05:47.872Z,9.50
2019-04-03T19:08:18.143Z,9.40
2019-04-03T19:10:47.928Z,9.20
2019-04-03T19:13:18.227Z,9.00
2019-04-03T19:16:01.986Z,8.80
2019-04-03T19:18:32.027Z,8.70
2019-04-03T19:21:01.318Z,8.60
2019-04-03T19:23:34.485Z,8.50
2019-04-03T19:26:03.515Z,8.50
2019-04-03T19:28:34.321Z,8.40
2019-04-03T19:31:03.133Z,8.50
2019-04-03T19:33:34.475Z,8.50
2019-04-03T19:36:03.549Z,8.60
2019-04-03T19:38:33.922Z,8.70
2019-04-03T19:41:04.738Z,8.70
2019-04-03T19:43:41.280Z,8.70
2019-04-03T19:46:10.369Z,8.70
2019-04-03T19:48:39.291Z,8.70
2019-04-03T19:51:08.438Z,8.70
2019-04-03T19:53:37.629Z,8.60
2019-04-03T19:56:06.590Z,8.50
2019-04-03T19:58:38.690Z,8.50
2019-04-03T20:01:08.354Z,8.50
2019-04-03T20:03:39.197Z,8.50
2019-04-03T20:06:09.561Z,8.50
2019-04-03T20:08:42.560Z,8.50
2019-04-03T20:11:15.757Z,8.50
2019-04-03T20:13:45.863Z,8.60
2019-04-03T20:16:14.809Z,8.50
2019-04-03T20:18:43.878Z,8.50
2019-04-03T20:21:15.280Z,8.50
2019-04-03T20:23:44.435Z,8.50
2019-04-03T20:26:16.288Z,8.40
2019-04-03T20:28:44.074Z,8.40
2019-04-03T20:31:14.505Z,8.40
2019-04-03T20:33:43.614Z,8.30
2019-04-03T20:36:16.617Z,8.30
2019-04-03T20:38:47.439Z,8.20
2019-04-03T20:41:16.599Z,8.30
2019-04-03T20:43:47.162Z,8.20
2019-04-03T20:46:16.507Z,8.20
2019-04-03T20:48:45.617Z,8.20
2019-04-03T20:51:14.970Z,8.20
2019-04-03T20:53:46.015Z,8.20
2019-04-03T20:56:17.212Z,8.20
2019-04-03T20:58:55.705Z,8.20
2019-04-03T21:01:21.097Z,8.20
2019-04-03T21:03:53.603Z,8.10
2019-04-03T21:06:22.701Z,8.20
2019-04-03T21:08:52.047Z,8.10
2019-04-03T21:11:21.227Z,8.10
2019-04-03T21:13:53.069Z,8.10
2019-04-03T21:16:33.115Z,8.10
2019-04-03T21:18:56.505Z,8.10
2019-04-03T21:21:29.180Z,8.00
2019-04-03T21:23:59.937Z,8.00
2019-04-03T21:26:32.211Z,8.00
2019-04-03T21:29:02.932Z,8.00
2019-04-03T21:31:31.923Z,8.00
2019-04-03T21:34:02.018Z,8.00
2019-04-03T21:36:31.512Z,8.00
2019-04-03T21:39:00.536Z,8.00
2019-04-03T21:41:29.674Z,7.90
2019-04-03T21:43:59.950Z,7.90
2019-04-03T21:46:30.907Z,7.90
2019-04-03T21:49:02.831Z,7.90
2019-04-03T21:51:31.789Z,7.80
2019-04-03T21:54:00.788Z,7.80
2019-04-03T21:56:38.516Z,7.80
2019-04-03T21:59:09.025Z,7.70
2019-04-03T22:01:39.249Z,7.70
2019-04-03T22:04:09.731Z,7.60
2019-04-03T22:06:38.869Z,7.60
2019-04-03T22:09:11.131Z,7.60
2019-04-03T22:11:40.229Z,7.50
2019-04-03T22:14:11.150Z,7.50
2019-04-03T22:16:43.519Z,7.50
2019-04-03T22:19:13.589Z,7.40
2019-04-03T22:21:42.628Z,7.40
2019-04-03T22:24:11.790Z,7.30
2019-04-03T22:26:41.389Z,7.30
2019-04-03T22:29:11.023Z,7.20
2019-04-03T22:31:41.414Z,7.20
2019-04-03T22:34:10.261Z,7.10
2019-04-03T22:36:41.222Z,7.10
2019-04-03T22:39:13.771Z,7.00
2019-04-03T22:41:43.441Z,6.90
2019-04-03T22:44:16.872Z,6.90
2019-04-03T22:46:44.791Z,6.90
2019-04-03T22:49:15.195Z,6.80
2019-04-03T22:51:44.224Z,6.80
2019-04-03T22:54:13.595Z,6.80
2019-04-03T22:56:42.543Z,6.80
2019-04-03T22:59:11.628Z,6.80
2019-04-03T23:01:42.123Z,6.90
2019-04-03T23:04:13.474Z,6.90
2019-04-03T23:06:42.405Z,6.90
2019-04-03T23:09:11.279Z,6.90
2019-04-03T23:11:40.193Z,6.90
2019-04-03T23:14:09.129Z,6.90
2019-04-03T23:16:42.401Z,6.90
2019-04-03T23:19:10.930Z,6.80
2019-04-03T23:21:40.040Z,6.80
2019-04-03T23:24:09.093Z,6.80
2019-04-03T23:26:40.964Z,6.80
2019-04-03T23:29:09.855Z,6.80
2019-04-03T23:31:38.887Z,6.80
2019-04-03T23:34:07.845Z,6.80
2019-04-03T23:36:36.671Z,6.70
2019-04-03T23:39:08.122Z,6.70
2019-04-03T23:41:37.115Z,6.70
2019-04-03T23:44:06.015Z,6.60
2019-04-03T23:46:35.000Z,6.60
2019-04-03T23:49:04.038Z,6.50
2019-04-03T23:51:33.159Z,6.50
2019-04-03T23:54:02.769Z,6.50
2019-04-03T23:56:32.407Z,6.50
2019-04-03T23:59:01.508Z,6.50
